KAJR Airport (Habersham County) Information

FAA: AJR - ICAO: KAJR

KAJR Airport Location

State Georgia
County Habersham
City Cornelia
KAJR Airport is 2 miles southwest of Cornelia, GA.
Latitude 34-29-59.4660N
Longitude 083-33-23.9930W
Elevation 1,447ft

KAJR Airport METARs

METAR KAJR 181235Z AUTO 31004KT 10SM CLR M01/M05 A3011 RMK AO2 T10101046
Altimeter 30.11"
Temperature -1.0°C (30.2°F)
Wind 310° at 4KT
Clouds Skies are clear.
Visibility 10.0mi
Time observed: 2022-01-18T12:35:00Z

KAJR Airport Details

Status Operational
Activation December 1989
Ownership Public
Usage Public
Chart ATLANTA
ATC on-site No
Beacon schedule sunset-sunrise
Beacon color clear green

KAJR Airport Contacts

Owner HABERSHAM COUNTY
Owner address 555 MONROE STREET, UNIT 20, CLARKESVILLE, GA 30523
Owner phone (706) 839-0200
Manager TERRY OWENBY
Manager address 1412 MILSTEAD AVENUE, NE, CONYERS, GA 30012
Manager phone (770) 918-3792

KAJR Airport (Habersham County) Radio Frequencies

KAJR (Airport) Radio Frequencies

UNICOM 122.7
Common traffic advisory frequency (CTAF) 122.7